sensor_id;sensor_type;location;lat;lon;timestamp;temperature;humidity
4964;DHT22;2497;47.410;9.740;2023-04-24T00:01:48;9.50;99.90
4964;DHT22;2497;47.410;9.740;2023-04-24T00:04:16;9.40;99.90
4964;DHT22;2497;47.410;9.740;2023-04-24T00:06:43;9.40;99.90
4964;DHT22;2497;47.410;9.740;2023-04-24T00:09:15;9.40;99.90
4964;DHT22;2497;47.410;9.740;2023-04-24T00:11:44;9.30;99.90
4964;DHT22;2497;47.410;9.740;2023-04-24T00:14:11;9.30;99.90
4964;DHT22;2497;47.410;9.740;2023-04-24T00:16:38;9.30;99.90
4964;DHT22;2497;47.410;9.740;2023-04-24T00:19:05;9.30;99.90
4964;DHT22;2497;47.410;9.740;2023-04-24T00:21:32;9.30;99.90
4964;DHT22;2497;47.410;9.740;2023-04-24T00:23:59;9.40;99.90
4964;DHT22;2497;47.410;9.740;2023-04-24T00:26:28;9.40;99.90
4964;DHT22;2497;47.410;9.740;2023-04-24T00:28:56;9.40;99.90
4964;DHT22;2497;47.410;9.740;2023-04-24T00:31:23;9.40;99.90
4964;DHT22;2497;47.410;9.740;2023-04-24T00:33:50;9.40;99.90
4964;DHT22;2497;47.410;9.740;2023-04-24T00:36:18;9.40;99.90
4964;DHT22;2497;47.410;9.740;2023-04-24T00:38:46;9.40;99.90
4964;DHT22;2497;47.410;9.740;2023-04-24T00:41:13;9.40;99.90
4964;DHT22;2497;47.410;9.740;2023-04-24T00:43:40;9.50;99.90
4964;DHT22;2497;47.410;9.740;2023-04-24T00:46:09;9.50;99.90
4964;DHT22;2497;47.410;9.740;2023-04-24T00:48:37;9.50;99.90
4964;DHT22;2497;47.410;9.740;2023-04-24T00:51:05;9.50;99.90
4964;DHT22;2497;47.410;9.740;2023-04-24T00:53:32;9.50;99.90
4964;DHT22;2497;47.410;9.740;2023-04-24T00:56:00;9.50;99.90
4964;DHT22;2497;47.410;9.740;2023-04-24T00:58:28;9.50;99.90
4964;DHT22;2497;47.410;9.740;2023-04-24T01:00:56;9.50;99.90
4964;DHT22;2497;47.410;9.740;2023-04-24T01:03:29;9.50;99.90
4964;DHT22;2497;47.410;9.740;2023-04-24T01:05:57;9.50;99.90
4964;DHT22;2497;47.410;9.740;2023-04-24T01:08:25;9.50;99.90
4964;DHT22;2497;47.410;9.740;2023-04-24T01:10:53;9.50;99.90
4964;DHT22;2497;47.410;9.740;2023-04-24T01:13:20;9.40;99.90
4964;DHT22;2497;47.410;9.740;2023-04-24T01:15:47;9.40;99.90
4964;DHT22;2497;47.410;9.740;2023-04-24T01:18:15;9.40;99.90
4964;DHT22;2497;47.410;9.740;2023-04-24T01:20:45;9.50;99.90
4964;DHT22;2497;47.410;9.740;2023-04-24T01:23:14;9.40;99.90
4964;DHT22;2497;47.410;9.740;2023-04-24T01:25:42;9.30;99.90
4964;DHT22;2497;47.410;9.740;2023-04-24T01:28:09;9.40;99.90
4964;DHT22;2497;47.410;9.740;2023-04-24T01:30:37;9.30;99.90
4964;DHT22;2497;47.410;9.740;2023-04-24T01:33:06;9.40;99.90
4964;DHT22;2497;47.410;9.740;2023-04-24T01:35:34;9.40;99.90
4964;DHT22;2497;47.410;9.740;2023-04-24T01:38:01;9.40;99.90
4964;DHT22;2497;47.410;9.740;2023-04-24T01:40:30;9.30;99.90
4964;DHT22;2497;47.410;9.740;2023-04-24T01:42:57;9.30;99.90
4964;DHT22;2497;47.410;9.740;2023-04-24T01:45:25;9.20;99.90
4964;DHT22;2497;47.410;9.740;2023-04-24T01:47:52;9.30;99.90
4964;DHT22;2497;47.410;9.740;2023-04-24T01:50:19;9.20;99.90
4964;DHT22;2497;47.410;9.740;2023-04-24T01:52:46;9.20;99.90
4964;DHT22;2497;47.410;9.740;2023-04-24T01:55:13;9.20;99.90
4964;DHT22;2497;47.410;9.740;2023-04-24T01:57:42;9.10;99.90
4964;DHT22;2497;47.410;9.740;2023-04-24T02:00:10;9.20;99.90
4964;DHT22;2497;47.410;9.740;2023-04-24T02:02:41;9.30;99.90
4964;DHT22;2497;47.410;9.740;2023-04-24T02:05:09;9.20;99.90
4964;DHT22;2497;47.410;9.740;2023-04-24T02:07:36;9.00;99.90
4964;DHT22;2497;47.410;9.740;2023-04-24T02:10:04;9.00;99.90
4964;DHT22;2497;47.410;9.740;2023-04-24T02:12:32;8.90;99.90
4964;DHT22;2497;47.410;9.740;2023-04-24T02:15:00;8.90;99.90
4964;DHT22;2497;47.410;9.740;2023-04-24T02:17:27;8.90;99.90
4964;DHT22;2497;47.410;9.740;2023-04-24T02:19:55;8.90;99.90
4964;DHT22;2497;47.410;9.740;2023-04-24T02:22:22;8.90;99.90
4964;DHT22;2497;47.410;9.740;2023-04-24T02:24:49;8.90;99.90
4964;DHT22;2497;47.410;9.740;2023-04-24T02:27:16;8.90;99.90
4964;DHT22;2497;47.410;9.740;2023-04-24T02:29:43;8.90;99.90
4964;DHT22;2497;47.410;9.740;2023-04-24T02:32:11;9.00;99.90
4964;DHT22;2497;47.410;9.740;2023-04-24T02:34:41;8.90;99.90
4964;DHT22;2497;47.410;9.740;2023-04-24T02:37:08;8.90;99.90
4964;DHT22;2497;47.410;9.740;2023-04-24T02:39:35;8.90;99.90
4964;DHT22;2497;47.410;9.740;2023-04-24T02:42:03;8.90;99.90
4964;DHT22;2497;47.410;9.740;2023-04-24T02:44:30;8.90;99.90
4964;DHT22;2497;47.410;9.740;2023-04-24T02:46:57;8.80;99.90
4964;DHT22;2497;47.410;9.740;2023-04-24T02:49:25;8.80;99.90
4964;DHT22;2497;47.410;9.740;2023-04-24T02:51:52;8.90;99.90
4964;DHT22;2497;47.410;9.740;2023-04-24T02:54:19;8.90;99.90
4964;DHT22;2497;47.410;9.740;2023-04-24T02:56:47;8.90;99.90
4964;DHT22;2497;47.410;9.740;2023-04-24T02:59:14;9.00;99.90
4964;DHT22;2497;47.410;9.740;2023-04-24T03:01:41;9.00;99.90
4964;DHT22;2497;47.410;9.740;2023-04-24T03:04:08;9.10;99.90
4964;DHT22;2497;47.410;9.740;2023-04-24T03:06:37;9.00;99.90
4964;DHT22;2497;47.410;9.740;2023-04-24T03:09:04;9.00;99.90
4964;DHT22;2497;47.410;9.740;2023-04-24T03:11:31;9.00;99.90
4964;DHT22;2497;47.410;9.740;2023-04-24T03:13:58;8.90;99.90
4964;DHT22;2497;47.410;9.740;2023-04-24T03:16:25;8.90;99.90
4964;DHT22;2497;47.410;9.740;2023-04-24T03:18:52;8.90;99.90
4964;DHT22;2497;47.410;9.740;2023-04-24T03:21:19;8.80;99.90
4964;DHT22;2497;47.410;9.740;2023-04-24T03:23:48;8.70;99.90
4964;DHT22;2497;47.410;9.740;2023-04-24T03:26:15;8.90;99.90
4964;DHT22;2497;47.410;9.740;2023-04-24T03:28:42;8.90;99.90
4964;DHT22;2497;47.410;9.740;2023-04-24T03:31:09;8.80;99.90
4964;DHT22;2497;47.410;9.740;2023-04-24T03:33:36;8.80;99.90
4964;DHT22;2497;47.410;9.740;2023-04-24T03:36:03;8.80;99.90
4964;DHT22;2497;47.410;9.740;2023-04-24T03:38:31;8.90;99.90
4964;DHT22;2497;47.410;9.740;2023-04-24T03:40:59;8.90;99.90
4964;DHT22;2497;47.410;9.740;2023-04-24T03:43:27;8.90;99.90
4964;DHT22;2497;47.410;9.740;2023-04-24T03:45:54;8.80;99.90
4964;DHT22;2497;47.410;9.740;2023-04-24T03:48:21;8.70;99.90
4964;DHT22;2497;47.410;9.740;2023-04-24T03:50:48;8.70;99.90
4964;DHT22;2497;47.410;9.740;2023-04-24T03:53:18;8.70;99.90
4964;DHT22;2497;47.410;9.740;2023-04-24T03:55:45;8.70;99.90
4964;DHT22;2497;47.410;9.740;2023-04-24T03:58:14;8.80;99.90
4964;DHT22;2497;47.410;9.740;2023-04-24T04:00:41;8.80;99.90
4964;DHT22;2497;47.410;9.740;2023-04-24T04:03:10;8.80;99.90
4964;DHT22;2497;47.410;9.740;2023-04-24T04:05:41;8.80;99.90
4964;DHT22;2497;47.410;9.740;2023-04-24T04:08:09;8.70;99.90
4964;DHT22;2497;47.410;9.740;2023-04-24T04:10:39;8.70;99.90
4964;DHT22;2497;47.410;9.740;2023-04-24T04:13:06;8.70;99.90
4964;DHT22;2497;47.410;9.740;2023-04-24T04:15:34;8.70;99.90
4964;DHT22;2497;47.410;9.740;2023-04-24T04:18:02;8.90;99.90
4964;DHT22;2497;47.410;9.740;2023-04-24T04:20:29;8.80;99.90
4964;DHT22;2497;47.410;9.740;2023-04-24T04:22:58;8.80;99.90
4964;DHT22;2497;47.410;9.740;2023-04-24T04:25:27;8.80;99.90
4964;DHT22;2497;47.410;9.740;2023-04-24T04:27:54;8.70;99.90
4964;DHT22;2497;47.410;9.740;2023-04-24T04:30:23;8.80;99.90
4964;DHT22;2497;47.410;9.740;2023-04-24T04:32:55;8.80;99.90
4964;DHT22;2497;47.410;9.740;2023-04-24T04:35:23;8.90;99.90
4964;DHT22;2497;47.410;9.740;2023-04-24T04:37:51;8.90;99.90
4964;DHT22;2497;47.410;9.740;2023-04-24T04:40:18;8.80;99.90
4964;DHT22;2497;47.410;9.740;2023-04-24T04:42:48;8.80;99.90
4964;DHT22;2497;47.410;9.740;2023-04-24T04:45:18;8.70;99.90
4964;DHT22;2497;47.410;9.740;2023-04-24T04:47:46;8.70;99.90
4964;DHT22;2497;47.410;9.740;2023-04-24T04:50:15;8.70;99.90
4964;DHT22;2497;47.410;9.740;2023-04-24T04:52:45;8.70;99.90
4964;DHT22;2497;47.410;9.740;2023-04-24T04:55:12;8.70;99.90
4964;DHT22;2497;47.410;9.740;2023-04-24T04:57:43;8.70;99.90
4964;DHT22;2497;47.410;9.740;2023-04-24T05:00:13;8.60;99.90
4964;DHT22;2497;47.410;9.740;2023-04-24T05:02:43;8.60;99.90
4964;DHT22;2497;47.410;9.740;2023-04-24T05:05:14;8.60;99.90
4964;DHT22;2497;47.410;9.740;2023-04-24T05:07:46;8.50;99.90
4964;DHT22;2497;47.410;9.740;2023-04-24T05:10:24;8.60;99.90
4964;DHT22;2497;47.410;9.740;2023-04-24T05:13:01;8.70;99.90
4964;DHT22;2497;47.410;9.740;2023-04-24T05:15:37;8.70;99.90
4964;DHT22;2497;47.410;9.740;2023-04-24T05:18:05;8.80;99.90
4964;DHT22;2497;47.410;9.740;2023-04-24T05:20:33;8.80;99.90
4964;DHT22;2497;47.410;9.740;2023-04-24T05:23:01;8.80;99.90
4964;DHT22;2497;47.410;9.740;2023-04-24T05:25:28;8.80;99.90
4964;DHT22;2497;47.410;9.740;2023-04-24T05:27:57;8.80;99.90
4964;DHT22;2497;47.410;9.740;2023-04-24T05:30:25;8.80;99.90
4964;DHT22;2497;47.410;9.740;2023-04-24T05:35:27;8.90;99.90
4964;DHT22;2497;47.410;9.740;2023-04-24T05:38:11;9.00;99.90
4964;DHT22;2497;47.410;9.740;2023-04-24T05:40:55;9.00;99.90
4964;DHT22;2497;47.410;9.740;2023-04-24T05:43:22;8.90;99.90
4964;DHT22;2497;47.410;9.740;2023-04-24T05:45:49;8.80;99.90
4964;DHT22;2497;47.410;9.740;2023-04-24T05:48:19;8.70;99.90
4964;DHT22;2497;47.410;9.740;2023-04-24T05:50:51;8.80;99.90
4964;DHT22;2497;47.410;9.740;2023-04-24T05:53:20;8.70;99.90
4964;DHT22;2497;47.410;9.740;2023-04-24T05:55:47;8.70;99.90
4964;DHT22;2497;47.410;9.740;2023-04-24T06:00:56;8.80;99.90
4964;DHT22;2497;47.410;9.740;2023-04-24T06:03:24;8.70;99.90
4964;DHT22;2497;47.410;9.740;2023-04-24T06:05:54;8.70;99.90
4964;DHT22;2497;47.410;9.740;2023-04-24T06:14:28;8.60;99.90
4964;DHT22;2497;47.410;9.740;2023-04-24T06:16:55;8.60;99.90
4964;DHT22;2497;47.410;9.740;2023-04-24T06:19:22;8.60;99.90
4964;DHT22;2497;47.410;9.740;2023-04-24T06:21:51;8.60;99.90
4964;DHT22;2497;47.410;9.740;2023-04-24T06:29:35;8.60;99.90
4964;DHT22;2497;47.410;9.740;2023-04-24T06:32:09;8.50;99.90
4964;DHT22;2497;47.410;9.740;2023-04-24T06:34:40;8.60;99.90
4964;DHT22;2497;47.410;9.740;2023-04-24T06:37:09;8.70;99.90
4964;DHT22;2497;47.410;9.740;2023-04-24T06:39:49;8.70;99.90
4964;DHT22;2497;47.410;9.740;2023-04-24T06:42:17;8.70;99.90
4964;DHT22;2497;47.410;9.740;2023-04-24T06:44:48;8.70;99.90
4964;DHT22;2497;47.410;9.740;2023-04-24T06:47:15;8.70;99.90
4964;DHT22;2497;47.410;9.740;2023-04-24T06:49:42;8.60;99.90
4964;DHT22;2497;47.410;9.740;2023-04-24T06:52:10;8.70;99.90
4964;DHT22;2497;47.410;9.740;2023-04-24T06:54:37;8.70;99.90
4964;DHT22;2497;47.410;9.740;2023-04-24T06:57:04;8.60;99.90
4964;DHT22;2497;47.410;9.740;2023-04-24T06:59:36;8.60;99.90
4964;DHT22;2497;47.410;9.740;2023-04-24T07:02:04;8.60;99.90
4964;DHT22;2497;47.410;9.740;2023-04-24T07:04:32;8.70;99.90
4964;DHT22;2497;47.410;9.740;2023-04-24T07:06:59;8.70;99.90
4964;DHT22;2497;47.410;9.740;2023-04-24T07:09:27;8.70;99.90
4964;DHT22;2497;47.410;9.740;2023-04-24T07:11:54;8.70;99.90
4964;DHT22;2497;47.410;9.740;2023-04-24T07:14:23;8.70;99.90
4964;DHT22;2497;47.410;9.740;2023-04-24T07:16:50;8.70;99.90
4964;DHT22;2497;47.410;9.740;2023-04-24T07:19:19;8.80;99.90
4964;DHT22;2497;47.410;9.740;2023-04-24T07:21:46;8.80;99.90
4964;DHT22;2497;47.410;9.740;2023-04-24T07:24:13;8.90;99.90
4964;DHT22;2497;47.410;9.740;2023-04-24T07:26:40;9.00;99.90
4964;DHT22;2497;47.410;9.740;2023-04-24T07:29:08;9.20;99.90
4964;DHT22;2497;47.410;9.740;2023-04-24T07:31:36;9.30;99.90
4964;DHT22;2497;47.410;9.740;2023-04-24T07:36:42;9.40;99.90
4964;DHT22;2497;47.410;9.740;2023-04-24T07:39:10;9.30;99.90
4964;DHT22;2497;47.410;9.740;2023-04-24T07:42:03;9.30;99.90
4964;DHT22;2497;47.410;9.740;2023-04-24T07:44:32;9.20;99.90
4964;DHT22;2497;47.410;9.740;2023-04-24T07:47:04;9.20;99.90
4964;DHT22;2497;47.410;9.740;2023-04-24T07:49:33;9.10;99.90
4964;DHT22;2497;47.410;9.740;2023-04-24T07:52:02;9.20;99.90
4964;DHT22;2497;47.410;9.740;2023-04-24T07:54:29;9.30;99.90
4964;DHT22;2497;47.410;9.740;2023-04-24T07:56:56;9.40;99.90
4964;DHT22;2497;47.410;9.740;2023-04-24T07:59:27;9.40;99.90
4964;DHT22;2497;47.410;9.740;2023-04-24T08:01:55;9.40;99.90
4964;DHT22;2497;47.410;9.740;2023-04-24T08:04:22;9.60;99.90
4964;DHT22;2497;47.410;9.740;2023-04-24T08:06:52;9.60;99.90
4964;DHT22;2497;47.410;9.740;2023-04-24T08:09:21;9.80;99.90
4964;DHT22;2497;47.410;9.740;2023-04-24T08:11:48;9.90;99.90
4964;DHT22;2497;47.410;9.740;2023-04-24T08:14:16;10.00;99.90
4964;DHT22;2497;47.410;9.740;2023-04-24T08:16:43;10.10;99.90
4964;DHT22;2497;47.410;9.740;2023-04-24T08:19:14;10.10;99.90
4964;DHT22;2497;47.410;9.740;2023-04-24T08:22:06;10.10;99.90
4964;DHT22;2497;47.410;9.740;2023-04-24T08:27:18;10.60;99.90
4964;DHT22;2497;47.410;9.740;2023-04-24T08:29:50;10.60;99.90
4964;DHT22;2497;47.410;9.740;2023-04-24T08:32:20;10.60;99.90
4964;DHT22;2497;47.410;9.740;2023-04-24T08:34:53;10.70;99.90
4964;DHT22;2497;47.410;9.740;2023-04-24T08:37:28;10.50;99.90
4964;DHT22;2497;47.410;9.740;2023-04-24T08:40:02;10.40;99.90
4964;DHT22;2497;47.410;9.740;2023-04-24T08:42:36;10.30;99.90
4964;DHT22;2497;47.410;9.740;2023-04-24T08:45:04;10.30;99.90
4964;DHT22;2497;47.410;9.740;2023-04-24T08:47:35;10.10;99.90
4964;DHT22;2497;47.410;9.740;2023-04-24T08:50:03;10.10;99.90
4964;DHT22;2497;47.410;9.740;2023-04-24T08:52:32;10.00;99.90
4964;DHT22;2497;47.410;9.740;2023-04-24T08:55:08;10.00;99.90
4964;DHT22;2497;47.410;9.740;2023-04-24T08:57:36;10.10;99.90
4964;DHT22;2497;47.410;9.740;2023-04-24T09:00:06;10.10;99.90
4964;DHT22;2497;47.410;9.740;2023-04-24T09:02:34;10.20;99.90
4964;DHT22;2497;47.410;9.740;2023-04-24T09:05:02;10.30;99.90
4964;DHT22;2497;47.410;9.740;2023-04-24T09:07:32;10.20;99.90
4964;DHT22;2497;47.410;9.740;2023-04-24T09:10:05;9.90;99.90
4964;DHT22;2497;47.410;9.740;2023-04-24T09:12:34;9.50;99.90
4964;DHT22;2497;47.410;9.740;2023-04-24T09:15:02;9.10;99.90
4964;DHT22;2497;47.410;9.740;2023-04-24T09:17:46;8.90;99.90
4964;DHT22;2497;47.410;9.740;2023-04-24T09:20:16;8.90;99.90
4964;DHT22;2497;47.410;9.740;2023-04-24T09:22:45;8.90;99.90
4964;DHT22;2497;47.410;9.740;2023-04-24T09:25:13;9.10;99.90
4964;DHT22;2497;47.410;9.740;2023-04-24T09:27:47;9.40;99.90
4964;DHT22;2497;47.410;9.740;2023-04-24T09:30:26;9.60;99.90
4964;DHT22;2497;47.410;9.740;2023-04-24T09:33:13;9.90;99.90
4964;DHT22;2497;47.410;9.740;2023-04-24T09:35:41;10.00;99.90
4964;DHT22;2497;47.410;9.740;2023-04-24T09:38:12;10.10;99.90
4964;DHT22;2497;47.410;9.740;2023-04-24T09:40:41;10.10;99.90
4964;DHT22;2497;47.410;9.740;2023-04-24T09:43:11;9.90;99.90
4964;DHT22;2497;47.410;9.740;2023-04-24T09:45:40;9.80;99.90
4964;DHT22;2497;47.410;9.740;2023-04-24T09:48:09;9.70;99.90
4964;DHT22;2497;47.410;9.740;2023-04-24T09:50:37;9.70;99.90
4964;DHT22;2497;47.410;9.740;2023-04-24T09:53:06;9.70;99.90
4964;DHT22;2497;47.410;9.740;2023-04-24T10:20:50;9.00;99.90
4964;DHT22;2497;47.410;9.740;2023-04-24T10:23:19;9.20;99.90
4964;DHT22;2497;47.410;9.740;2023-04-24T10:25:48;9.50;99.90
4964;DHT22;2497;47.410;9.740;2023-04-24T10:28:17;9.80;99.90
4964;DHT22;2497;47.410;9.740;2023-04-24T10:30:46;10.00;99.90
4964;DHT22;2497;47.410;9.740;2023-04-24T10:33:14;10.20;99.90
4964;DHT22;2497;47.410;9.740;2023-04-24T10:35:45;10.40;99.90
4964;DHT22;2497;47.410;9.740;2023-04-24T10:38:18;10.60;99.90
4964;DHT22;2497;47.410;9.740;2023-04-24T10:40:49;10.70;99.90
4964;DHT22;2497;47.410;9.740;2023-04-24T10:43:17;10.80;99.90
4964;DHT22;2497;47.410;9.740;2023-04-24T10:46:00;10.80;99.90
4964;DHT22;2497;47.410;9.740;2023-04-24T10:48:36;10.80;99.90
4964;DHT22;2497;47.410;9.740;2023-04-24T10:51:12;10.70;99.90
4964;DHT22;2497;47.410;9.740;2023-04-24T10:53:44;10.50;99.90
4964;DHT22;2497;47.410;9.740;2023-04-24T10:56:12;10.30;99.90
4964;DHT22;2497;47.410;9.740;2023-04-24T10:58:50;10.10;99.90
4964;DHT22;2497;47.410;9.740;2023-04-24T11:01:41;9.90;99.90
4964;DHT22;2497;47.410;9.740;2023-04-24T11:04:31;9.80;99.90
4964;DHT22;2497;47.410;9.740;2023-04-24T11:15:10;10.10;99.90
4964;DHT22;2497;47.410;9.740;2023-04-24T11:17:43;10.60;99.90
4964;DHT22;2497;47.410;9.740;2023-04-24T11:22:45;11.60;99.90
4964;DHT22;2497;47.410;9.740;2023-04-24T11:25:15;12.20;99.90
4964;DHT22;2497;47.410;9.740;2023-04-24T11:28:08;12.90;99.90
4964;DHT22;2497;47.410;9.740;2023-04-24T11:30:44;13.20;99.90
4964;DHT22;2497;47.410;9.740;2023-04-24T11:33:21;13.00;99.90
4964;DHT22;2497;47.410;9.740;2023-04-24T11:35:51;13.10;99.90
4964;DHT22;2497;47.410;9.740;2023-04-24T11:38:18;12.70;99.90
4964;DHT22;2497;47.410;9.740;2023-04-24T11:40:49;12.50;99.90
4964;DHT22;2497;47.410;9.740;2023-04-24T11:43:16;12.40;99.90
4964;DHT22;2497;47.410;9.740;2023-04-24T11:45:49;12.30;99.90
4964;DHT22;2497;47.410;9.740;2023-04-24T11:48:19;12.10;99.90
4964;DHT22;2497;47.410;9.740;2023-04-24T11:50:46;12.10;99.90
4964;DHT22;2497;47.410;9.740;2023-04-24T11:53:14;12.10;99.90
4964;DHT22;2497;47.410;9.740;2023-04-24T11:55:41;12.00;99.90
4964;DHT22;2497;47.410;9.740;2023-04-24T11:58:08;12.10;99.90
4964;DHT22;2497;47.410;9.740;2023-04-24T12:00:36;12.00;99.90
4964;DHT22;2497;47.410;9.740;2023-04-24T12:03:07;12.10;99.90
4964;DHT22;2497;47.410;9.740;2023-04-24T12:05:34;12.00;99.90
4964;DHT22;2497;47.410;9.740;2023-04-24T12:08:02;12.00;99.90
4964;DHT22;2497;47.410;9.740;2023-04-24T12:10:31;11.90;99.90
4964;DHT22;2497;47.410;9.740;2023-04-24T12:12:58;11.70;99.90
4964;DHT22;2497;47.410;9.740;2023-04-24T12:15:26;11.60;99.90
4964;DHT22;2497;47.410;9.740;2023-04-24T12:17:57;11.60;99.90
4964;DHT22;2497;47.410;9.740;2023-04-24T12:20:30;11.60;99.90
4964;DHT22;2497;47.410;9.740;2023-04-24T12:22:58;11.60;99.90
4964;DHT22;2497;47.410;9.740;2023-04-24T12:25:27;11.50;99.90
4964;DHT22;2497;47.410;9.740;2023-04-24T12:27:55;11.30;99.90
4964;DHT22;2497;47.410;9.740;2023-04-24T12:30:40;11.20;99.90
4964;DHT22;2497;47.410;9.740;2023-04-24T12:33:09;11.20;99.90
4964;DHT22;2497;47.410;9.740;2023-04-24T12:35:40;11.20;99.90
4964;DHT22;2497;47.410;9.740;2023-04-24T12:38:11;11.20;99.90
4964;DHT22;2497;47.410;9.740;2023-04-24T12:40:39;11.20;99.90
4964;DHT22;2497;47.410;9.740;2023-04-24T12:43:16;11.10;99.90
4964;DHT22;2497;47.410;9.740;2023-04-24T12:45:48;11.20;99.90
4964;DHT22;2497;47.410;9.740;2023-04-24T12:48:15;11.10;99.90
4964;DHT22;2497;47.410;9.740;2023-04-24T12:50:44;11.10;99.90
4964;DHT22;2497;47.410;9.740;2023-04-24T12:53:11;11.10;99.90
4964;DHT22;2497;47.410;9.740;2023-04-24T12:55:38;11.10;99.90
4964;DHT22;2497;47.410;9.740;2023-04-24T12:58:06;11.20;99.90
4964;DHT22;2497;47.410;9.740;2023-04-24T13:00:35;11.30;99.90
4964;DHT22;2497;47.410;9.740;2023-04-24T13:03:03;11.50;99.90
4964;DHT22;2497;47.410;9.740;2023-04-24T13:05:33;11.70;99.90
4964;DHT22;2497;47.410;9.740;2023-04-24T13:08:02;11.70;99.90
4964;DHT22;2497;47.410;9.740;2023-04-24T13:10:29;11.50;99.90
4964;DHT22;2497;47.410;9.740;2023-04-24T13:12:57;11.40;99.90
4964;DHT22;2497;47.410;9.740;2023-04-24T13:18:20;11.20;99.90
4964;DHT22;2497;47.410;9.740;2023-04-24T13:21:01;11.10;99.90
4964;DHT22;2497;47.410;9.740;2023-04-24T13:23:29;10.90;99.90
4964;DHT22;2497;47.410;9.740;2023-04-24T13:26:02;10.50;99.90
4964;DHT22;2497;47.410;9.740;2023-04-24T13:28:29;10.50;99.90
4964;DHT22;2497;47.410;9.740;2023-04-24T13:30:56;10.80;99.90
4964;DHT22;2497;47.410;9.740;2023-04-24T13:50:32;10.80;99.90
4964;DHT22;2497;47.410;9.740;2023-04-24T13:53:17;11.10;99.90
4964;DHT22;2497;47.410;9.740;2023-04-24T14:01:13;15.60;99.90
4964;DHT22;2497;47.410;9.740;2023-04-24T14:04:06;15.50;99.90
4964;DHT22;2497;47.410;9.740;2023-04-24T14:06:50;14.30;99.90
4964;DHT22;2497;47.410;9.740;2023-04-24T14:09:20;13.10;99.90
4964;DHT22;2497;47.410;9.740;2023-04-24T14:11:48;12.60;99.90
4964;DHT22;2497;47.410;9.740;2023-04-24T14:14:15;12.40;99.90
4964;DHT22;2497;47.410;9.740;2023-04-24T14:16:42;12.20;99.90
4964;DHT22;2497;47.410;9.740;2023-04-24T14:19:13;12.00;99.90
4964;DHT22;2497;47.410;9.740;2023-04-24T14:21:52;12.30;99.90
4964;DHT22;2497;47.410;9.740;2023-04-24T14:24:21;12.60;99.90
4964;DHT22;2497;47.410;9.740;2023-04-24T14:26:51;13.10;99.90
4964;DHT22;2497;47.410;9.740;2023-04-24T14:32:38;17.10;99.90
4964;DHT22;2497;47.410;9.740;2023-04-24T14:37:59;15.30;99.90
4964;DHT22;2497;47.410;9.740;2023-04-24T14:40:26;14.60;99.90
4964;DHT22;2497;47.410;9.740;2023-04-24T14:42:55;14.00;99.90
4964;DHT22;2497;47.410;9.740;2023-04-24T14:45:23;13.70;99.90
4964;DHT22;2497;47.410;9.740;2023-04-24T14:47:59;13.90;99.90
4964;DHT22;2497;47.410;9.740;2023-04-24T14:50:28;13.80;99.90
4964;DHT22;2497;47.410;9.740;2023-04-24T14:52:55;13.40;99.90
4964;DHT22;2497;47.410;9.740;2023-04-24T14:55:24;12.80;99.90
4964;DHT22;2497;47.410;9.740;2023-04-24T14:57:52;12.60;99.90
4964;DHT22;2497;47.410;9.740;2023-04-24T15:00:21;12.30;99.90
4964;DHT22;2497;47.410;9.740;2023-04-24T15:02:50;12.10;99.90
4964;DHT22;2497;47.410;9.740;2023-04-24T15:05:17;11.90;99.90
4964;DHT22;2497;47.410;9.740;2023-04-24T15:07:44;11.70;99.90
4964;DHT22;2497;47.410;9.740;2023-04-24T15:10:12;11.50;99.90
4964;DHT22;2497;47.410;9.740;2023-04-24T15:12:40;12.40;99.90
4964;DHT22;2497;47.410;9.740;2023-04-24T15:15:08;13.80;99.90
4964;DHT22;2497;47.410;9.740;2023-04-24T15:17:36;15.50;99.90
4964;DHT22;2497;47.410;9.740;2023-04-24T15:20:04;16.70;99.90
4964;DHT22;2497;47.410;9.740;2023-04-24T15:22:32;17.00;99.90
4964;DHT22;2497;47.410;9.740;2023-04-24T15:24:59;17.70;99.90
4964;DHT22;2497;47.410;9.740;2023-04-24T15:27:26;18.40;99.90
4964;DHT22;2497;47.410;9.740;2023-04-24T15:29:55;18.80;99.90
4964;DHT22;2497;47.410;9.740;2023-04-24T15:32:24;18.10;99.90
4964;DHT22;2497;47.410;9.740;2023-04-24T15:34:57;16.70;99.90
4964;DHT22;2497;47.410;9.740;2023-04-24T15:37:25;15.10;99.90
4964;DHT22;2497;47.410;9.740;2023-04-24T15:39:52;14.40;99.90
4964;DHT22;2497;47.410;9.740;2023-04-24T15:42:20;14.00;99.90
4964;DHT22;2497;47.410;9.740;2023-04-24T15:44:49;13.70;99.90
4964;DHT22;2497;47.410;9.740;2023-04-24T15:47:18;13.40;99.90
4964;DHT22;2497;47.410;9.740;2023-04-24T15:49:45;13.00;99.90
4964;DHT22;2497;47.410;9.740;2023-04-24T15:52:13;12.80;99.90
4964;DHT22;2497;47.410;9.740;2023-04-24T15:54:40;12.60;99.90
4964;DHT22;2497;47.410;9.740;2023-04-24T15:57:08;12.20;99.90
4964;DHT22;2497;47.410;9.740;2023-04-24T15:59:35;11.70;99.90
4964;DHT22;2497;47.410;9.740;2023-04-24T16:02:02;11.40;99.90
4964;DHT22;2497;47.410;9.740;2023-04-24T16:04:32;11.50;99.90
4964;DHT22;2497;47.410;9.740;2023-04-24T16:07:00;11.40;99.90
4964;DHT22;2497;47.410;9.740;2023-04-24T16:09:27;11.00;99.90
4964;DHT22;2497;47.410;9.740;2023-04-24T16:11:56;10.70;99.90
4964;DHT22;2497;47.410;9.740;2023-04-24T16:14:24;10.40;99.90
4964;DHT22;2497;47.410;9.740;2023-04-24T16:16:51;9.90;99.90
4964;DHT22;2497;47.410;9.740;2023-04-24T16:19:20;9.40;99.90
4964;DHT22;2497;47.410;9.740;2023-04-24T16:21:49;9.20;99.90
4964;DHT22;2497;47.410;9.740;2023-04-24T16:24:19;9.10;99.90
4964;DHT22;2497;47.410;9.740;2023-04-24T16:26:46;9.50;99.90
4964;DHT22;2497;47.410;9.740;2023-04-24T16:29:14;9.70;99.90
4964;DHT22;2497;47.410;9.740;2023-04-24T16:31:41;9.80;99.90
4964;DHT22;2497;47.410;9.740;2023-04-24T16:34:09;10.20;99.90
4964;DHT22;2497;47.410;9.740;2023-04-24T16:36:36;10.50;99.90
4964;DHT22;2497;47.410;9.740;2023-04-24T16:39:05;10.80;99.90
4964;DHT22;2497;47.410;9.740;2023-04-24T16:41:34;10.90;99.90
4964;DHT22;2497;47.410;9.740;2023-04-24T16:44:04;11.20;99.90
4964;DHT22;2497;47.410;9.740;2023-04-24T16:46:32;11.40;99.90
4964;DHT22;2497;47.410;9.740;2023-04-24T16:48:59;11.80;99.90
4964;DHT22;2497;47.410;9.740;2023-04-24T16:51:26;11.70;99.90
4964;DHT22;2497;47.410;9.740;2023-04-24T16:53:53;11.80;99.90
4964;DHT22;2497;47.410;9.740;2023-04-24T16:56:22;12.10;99.90
4964;DHT22;2497;47.410;9.740;2023-04-24T16:58:49;12.40;99.90
4964;DHT22;2497;47.410;9.740;2023-04-24T17:01:17;12.50;99.90
4964;DHT22;2497;47.410;9.740;2023-04-24T17:03:44;12.50;99.90
4964;DHT22;2497;47.410;9.740;2023-04-24T17:06:12;12.50;99.90
4964;DHT22;2497;47.410;9.740;2023-04-24T17:08:39;12.20;99.90
4964;DHT22;2497;47.410;9.740;2023-04-24T17:11:11;11.80;99.90
4964;DHT22;2497;47.410;9.740;2023-04-24T17:13:39;11.50;99.90
4964;DHT22;2497;47.410;9.740;2023-04-24T17:16:06;11.40;99.90
4964;DHT22;2497;47.410;9.740;2023-04-24T17:18:34;11.20;99.90
4964;DHT22;2497;47.410;9.740;2023-04-24T17:21:01;11.10;99.90
4964;DHT22;2497;47.410;9.740;2023-04-24T17:23:29;11.00;99.90
4964;DHT22;2497;47.410;9.740;2023-04-24T17:25:56;10.90;99.90
4964;DHT22;2497;47.410;9.740;2023-04-24T17:28:26;10.80;99.90
4964;DHT22;2497;47.410;9.740;2023-04-24T17:30:55;10.60;99.90
4964;DHT22;2497;47.410;9.740;2023-04-24T17:33:26;10.60;99.90
4964;DHT22;2497;47.410;9.740;2023-04-24T17:35:53;10.50;99.90
4964;DHT22;2497;47.410;9.740;2023-04-24T17:38:22;10.50;99.90
4964;DHT22;2497;47.410;9.740;2023-04-24T17:40:49;10.40;99.90
4964;DHT22;2497;47.410;9.740;2023-04-24T17:43:17;10.30;99.90
4964;DHT22;2497;47.410;9.740;2023-04-24T17:45:45;10.10;99.90
4964;DHT22;2497;47.410;9.740;2023-04-24T17:48:16;10.00;99.90
4964;DHT22;2497;47.410;9.740;2023-04-24T17:50:45;9.90;99.90
4964;DHT22;2497;47.410;9.740;2023-04-24T17:53:12;9.80;99.90